sensor_id;sensor_type;location;lat;lon;timestamp;P1;durP1;ratioP1;P2;durP2;ratioP2
13386;SDS011;6763;48.524;9.044;2023-02-28T00:01:23;0.60;;;0.60;;
13386;SDS011;6763;48.524;9.044;2023-02-28T00:03:49;0.90;;;0.90;;
13386;SDS011;6763;48.524;9.044;2023-02-28T00:06:14;0.90;;;0.90;;
13386;SDS011;6763;48.524;9.044;2023-02-28T00:08:40;1.90;;;0.60;;
13386;SDS011;6763;48.524;9.044;2023-02-28T00:11:07;0.63;;;0.63;;
13386;SDS011;6763;48.524;9.044;2023-02-28T00:13:37;0.70;;;0.70;;
13386;SDS011;6763;48.524;9.044;2023-02-28T00:16:05;0.50;;;0.50;;
13386;SDS011;6763;48.524;9.044;2023-02-28T00:18:33;0.73;;;0.73;;
13386;SDS011;6763;48.524;9.044;2023-02-28T00:20:58;0.50;;;0.50;;
13386;SDS011;6763;48.524;9.044;2023-02-28T00:23:24;0.50;;;0.50;;
13386;SDS011;6763;48.524;9.044;2023-02-28T00:25:51;1.10;;;0.97;;
13386;SDS011;6763;48.524;9.044;2023-02-28T00:28:16;0.50;;;0.50;;
13386;SDS011;6763;48.524;9.044;2023-02-28T00:30:42;0.80;;;0.80;;
13386;SDS011;6763;48.524;9.044;2023-02-28T00:33:07;0.73;;;0.73;;
13386;SDS011;6763;48.524;9.044;2023-02-28T00:35:33;1.03;;;1.03;;
13386;SDS011;6763;48.524;9.044;2023-02-28T00:37:58;0.33;;;0.33;;
13386;SDS011;6763;48.524;9.044;2023-02-28T00:40:24;0.60;;;0.60;;
13386;SDS011;6763;48.524;9.044;2023-02-28T00:42:49;0.50;;;0.50;;
13386;SDS011;6763;48.524;9.044;2023-02-28T00:45:14;1.13;;;1.03;;
13386;SDS011;6763;48.524;9.044;2023-02-28T00:47:40;1.10;;;1.00;;
13386;SDS011;6763;48.524;9.044;2023-02-28T00:50:05;0.73;;;0.73;;
13386;SDS011;6763;48.524;9.044;2023-02-28T00:52:31;2.60;;;0.70;;
13386;SDS011;6763;48.524;9.044;2023-02-28T00:54:56;0.67;;;0.63;;
13386;SDS011;6763;48.524;9.044;2023-02-28T00:57:22;2.37;;;1.70;;
13386;SDS011;6763;48.524;9.044;2023-02-28T00:59:47;1.27;;;0.93;;
13386;SDS011;6763;48.524;9.044;2023-02-28T01:02:13;0.50;;;0.50;;
13386;SDS011;6763;48.524;9.044;2023-02-28T01:04:38;4.40;;;0.73;;
13386;SDS011;6763;48.524;9.044;2023-02-28T01:07:04;1.03;;;0.93;;
13386;SDS011;6763;48.524;9.044;2023-02-28T01:09:29;0.63;;;0.63;;
13386;SDS011;6763;48.524;9.044;2023-02-28T01:11:55;2.60;;;1.20;;
13386;SDS011;6763;48.524;9.044;2023-02-28T01:14:20;0.50;;;0.50;;
13386;SDS011;6763;48.524;9.044;2023-02-28T01:16:45;0.83;;;0.83;;
13386;SDS011;6763;48.524;9.044;2023-02-28T01:19:11;0.60;;;0.60;;
13386;SDS011;6763;48.524;9.044;2023-02-28T01:21:36;0.50;;;0.50;;
13386;SDS011;6763;48.524;9.044;2023-02-28T01:24:02;0.60;;;0.60;;
13386;SDS011;6763;48.524;9.044;2023-02-28T01:26:29;1.07;;;0.97;;
13386;SDS011;6763;48.524;9.044;2023-02-28T01:28:54;0.63;;;0.63;;
13386;SDS011;6763;48.524;9.044;2023-02-28T01:31:20;1.00;;;0.90;;
13386;SDS011;6763;48.524;9.044;2023-02-28T01:33:46;0.60;;;0.60;;
13386;SDS011;6763;48.524;9.044;2023-02-28T01:36:13;0.60;;;0.60;;
13386;SDS011;6763;48.524;9.044;2023-02-28T01:38:40;1.13;;;1.00;;
13386;SDS011;6763;48.524;9.044;2023-02-28T01:41:06;5.97;;;1.30;;
13386;SDS011;6763;48.524;9.044;2023-02-28T01:43:52;1.93;;;1.40;;
13386;SDS011;6763;48.524;9.044;2023-02-28T01:46:22;0.63;;;0.63;;
13386;SDS011;6763;48.524;9.044;2023-02-28T01:48:50;3.30;;;0.97;;
13386;SDS011;6763;48.524;9.044;2023-02-28T01:51:27;3.30;;;1.27;;
13386;SDS011;6763;48.524;9.044;2023-02-28T01:53:59;0.60;;;0.60;;
13386;SDS011;6763;48.524;9.044;2023-02-28T01:56:29;0.50;;;0.50;;
13386;SDS011;6763;48.524;9.044;2023-02-28T01:58:57;1.47;;;1.20;;
13386;SDS011;6763;48.524;9.044;2023-02-28T02:01:24;0.80;;;0.80;;
13386;SDS011;6763;48.524;9.044;2023-02-28T02:03:53;1.37;;;0.80;;
13386;SDS011;6763;48.524;9.044;2023-02-28T02:06:26;0.57;;;0.57;;
13386;SDS011;6763;48.524;9.044;2023-02-28T02:08:54;0.60;;;0.60;;
13386;SDS011;6763;48.524;9.044;2023-02-28T02:11:20;0.90;;;0.90;;
13386;SDS011;6763;48.524;9.044;2023-02-28T02:16:51;0.93;;;0.93;;
13386;SDS011;6763;48.524;9.044;2023-02-28T02:29:10;0.40;;;0.40;;
13386;SDS011;6763;48.524;9.044;2023-02-28T02:40:14;0.87;;;0.87;;
13386;SDS011;6763;48.524;9.044;2023-02-28T02:42:51;1.40;;;1.03;;
13386;SDS011;6763;48.524;9.044;2023-02-28T02:48:01;0.40;;;0.40;;
13386;SDS011;6763;48.524;9.044;2023-02-28T02:50:38;0.93;;;0.80;;
13386;SDS011;6763;48.524;9.044;2023-02-28T02:53:07;0.73;;;0.73;;
13386;SDS011;6763;48.524;9.044;2023-02-28T02:55:36;0.60;;;0.60;;
13386;SDS011;6763;48.524;9.044;2023-02-28T02:58:07;0.40;;;0.40;;
13386;SDS011;6763;48.524;9.044;2023-02-28T03:00:37;0.80;;;0.80;;
13386;SDS011;6763;48.524;9.044;2023-02-28T03:03:06;0.73;;;0.70;;
13386;SDS011;6763;48.524;9.044;2023-02-28T03:05:45;0.67;;;0.60;;
13386;SDS011;6763;48.524;9.044;2023-02-28T03:08:13;1.37;;;1.27;;
13386;SDS011;6763;48.524;9.044;2023-02-28T03:10:41;0.53;;;0.53;;
13386;SDS011;6763;48.524;9.044;2023-02-28T03:15:43;1.93;;;0.70;;
13386;SDS011;6763;48.524;9.044;2023-02-28T03:18:29;1.43;;;1.40;;
13386;SDS011;6763;48.524;9.044;2023-02-28T03:24:10;0.70;;;0.70;;
13386;SDS011;6763;48.524;9.044;2023-02-28T03:26:43;3.50;;;1.40;;
13386;SDS011;6763;48.524;9.044;2023-02-28T03:31:44;1.23;;;1.13;;
13386;SDS011;6763;48.524;9.044;2023-02-28T03:34:19;0.50;;;0.50;;
13386;SDS011;6763;48.524;9.044;2023-02-28T03:36:52;0.80;;;0.80;;
13386;SDS011;6763;48.524;9.044;2023-02-28T03:39:22;0.80;;;0.70;;
13386;SDS011;6763;48.524;9.044;2023-02-28T03:41:52;0.67;;;0.67;;
13386;SDS011;6763;48.524;9.044;2023-02-28T03:44:26;0.87;;;0.80;;
13386;SDS011;6763;48.524;9.044;2023-02-28T03:46:59;1.37;;;1.07;;
13386;SDS011;6763;48.524;9.044;2023-02-28T03:50:10;0.73;;;0.70;;
13386;SDS011;6763;48.524;9.044;2023-02-28T03:52:40;0.93;;;0.90;;
13386;SDS011;6763;48.524;9.044;2023-02-28T03:55:10;0.80;;;0.80;;
13386;SDS011;6763;48.524;9.044;2023-02-28T04:00:07;1.30;;;0.73;;
13386;SDS011;6763;48.524;9.044;2023-02-28T04:02:37;4.60;;;0.80;;
13386;SDS011;6763;48.524;9.044;2023-02-28T04:05:04;3.43;;;1.10;;
13386;SDS011;6763;48.524;9.044;2023-02-28T04:07:30;1.20;;;1.10;;
13386;SDS011;6763;48.524;9.044;2023-02-28T04:09:56;0.77;;;0.77;;
13386;SDS011;6763;48.524;9.044;2023-02-28T04:12:22;3.20;;;0.73;;
13386;SDS011;6763;48.524;9.044;2023-02-28T04:14:48;1.07;;;1.00;;
13386;SDS011;6763;48.524;9.044;2023-02-28T04:17:14;1.50;;;1.13;;
13386;SDS011;6763;48.524;9.044;2023-02-28T04:19:39;0.70;;;0.70;;
13386;SDS011;6763;48.524;9.044;2023-02-28T04:22:05;1.27;;;1.23;;
13386;SDS011;6763;48.524;9.044;2023-02-28T04:24:30;1.20;;;1.13;;
13386;SDS011;6763;48.524;9.044;2023-02-28T04:26:56;1.23;;;0.93;;
13386;SDS011;6763;48.524;9.044;2023-02-28T04:29:24;1.20;;;0.77;;
13386;SDS011;6763;48.524;9.044;2023-02-28T04:31:51;0.97;;;0.90;;
13386;SDS011;6763;48.524;9.044;2023-02-28T04:34:18;1.87;;;1.23;;
13386;SDS011;6763;48.524;9.044;2023-02-28T04:36:46;0.60;;;0.60;;
13386;SDS011;6763;48.524;9.044;2023-02-28T04:39:14;0.97;;;0.97;;
13386;SDS011;6763;48.524;9.044;2023-02-28T04:41:40;1.23;;;1.13;;
13386;SDS011;6763;48.524;9.044;2023-02-28T04:44:05;1.57;;;1.20;;
13386;SDS011;6763;48.524;9.044;2023-02-28T04:46:30;1.10;;;1.00;;
13386;SDS011;6763;48.524;9.044;2023-02-28T04:48:56;0.70;;;0.70;;
13386;SDS011;6763;48.524;9.044;2023-02-28T04:51:21;1.30;;;1.20;;
13386;SDS011;6763;48.524;9.044;2023-02-28T04:53:47;0.80;;;0.80;;
13386;SDS011;6763;48.524;9.044;2023-02-28T04:56:13;0.93;;;0.93;;
13386;SDS011;6763;48.524;9.044;2023-02-28T04:58:40;0.87;;;0.80;;
13386;SDS011;6763;48.524;9.044;2023-02-28T05:03:48;0.67;;;0.67;;
13386;SDS011;6763;48.524;9.044;2023-02-28T05:06:14;1.60;;;1.00;;
13386;SDS011;6763;48.524;9.044;2023-02-28T05:08:40;1.20;;;1.10;;
13386;SDS011;6763;48.524;9.044;2023-02-28T05:11:06;1.30;;;0.63;;
13386;SDS011;6763;48.524;9.044;2023-02-28T05:13:41;0.77;;;0.77;;
13386;SDS011;6763;48.524;9.044;2023-02-28T05:16:07;1.33;;;0.87;;
13386;SDS011;6763;48.524;9.044;2023-02-28T05:18:32;0.90;;;0.90;;
13386;SDS011;6763;48.524;9.044;2023-02-28T05:20:57;1.77;;;1.33;;
13386;SDS011;6763;48.524;9.044;2023-02-28T05:23:23;0.80;;;0.80;;
13386;SDS011;6763;48.524;9.044;2023-02-28T05:25:48;1.80;;;1.13;;
13386;SDS011;6763;48.524;9.044;2023-02-28T05:28:14;1.43;;;0.80;;
13386;SDS011;6763;48.524;9.044;2023-02-28T05:30:39;2.10;;;1.07;;
13386;SDS011;6763;48.524;9.044;2023-02-28T05:33:05;4.43;;;1.60;;
13386;SDS011;6763;48.524;9.044;2023-02-28T05:35:30;1.40;;;1.00;;
13386;SDS011;6763;48.524;9.044;2023-02-28T05:37:56;1.13;;;1.13;;
13386;SDS011;6763;48.524;9.044;2023-02-28T05:40:21;0.70;;;0.70;;
13386;SDS011;6763;48.524;9.044;2023-02-28T05:42:47;1.00;;;1.00;;
13386;SDS011;6763;48.524;9.044;2023-02-28T05:45:12;2.43;;;0.97;;
13386;SDS011;6763;48.524;9.044;2023-02-28T05:47:38;1.10;;;1.10;;
13386;SDS011;6763;48.524;9.044;2023-02-28T05:50:03;2.23;;;1.23;;
13386;SDS011;6763;48.524;9.044;2023-02-28T05:52:30;0.87;;;0.80;;
13386;SDS011;6763;48.524;9.044;2023-02-28T05:54:55;0.97;;;0.97;;
13386;SDS011;6763;48.524;9.044;2023-02-28T05:57:21;2.23;;;1.60;;
13386;SDS011;6763;48.524;9.044;2023-02-28T05:59:47;1.73;;;1.33;;
13386;SDS011;6763;48.524;9.044;2023-02-28T06:02:13;0.63;;;0.63;;
13386;SDS011;6763;48.524;9.044;2023-02-28T06:04:41;2.23;;;0.93;;
13386;SDS011;6763;48.524;9.044;2023-02-28T06:07:07;2.33;;;2.13;;
13386;SDS011;6763;48.524;9.044;2023-02-28T06:09:33;0.90;;;0.90;;
13386;SDS011;6763;48.524;9.044;2023-02-28T06:11:59;0.70;;;0.70;;
13386;SDS011;6763;48.524;9.044;2023-02-28T06:14:25;1.27;;;1.17;;
13386;SDS011;6763;48.524;9.044;2023-02-28T06:16:51;0.73;;;0.73;;
13386;SDS011;6763;48.524;9.044;2023-02-28T06:19:16;1.00;;;1.00;;
13386;SDS011;6763;48.524;9.044;2023-02-28T06:21:42;2.23;;;1.17;;
13386;SDS011;6763;48.524;9.044;2023-02-28T06:24:07;2.83;;;1.53;;
13386;SDS011;6763;48.524;9.044;2023-02-28T06:26:33;2.03;;;1.93;;
13386;SDS011;6763;48.524;9.044;2023-02-28T06:28:58;1.10;;;1.10;;
13386;SDS011;6763;48.524;9.044;2023-02-28T06:31:25;0.53;;;0.53;;
13386;SDS011;6763;48.524;9.044;2023-02-28T06:33:51;1.00;;;1.00;;
13386;SDS011;6763;48.524;9.044;2023-02-28T06:36:17;1.80;;;1.23;;
13386;SDS011;6763;48.524;9.044;2023-02-28T06:38:43;1.80;;;1.70;;
13386;SDS011;6763;48.524;9.044;2023-02-28T06:41:09;1.63;;;1.53;;
13386;SDS011;6763;48.524;9.044;2023-02-28T06:43:41;4.60;;;0.90;;
13386;SDS011;6763;48.524;9.044;2023-02-28T06:46:08;0.70;;;0.70;;
13386;SDS011;6763;48.524;9.044;2023-02-28T06:48:35;1.00;;;1.00;;
13386;SDS011;6763;48.524;9.044;2023-02-28T06:51:02;10.97;;;2.57;;
13386;SDS011;6763;48.524;9.044;2023-02-28T06:53:31;1.77;;;1.37;;
13386;SDS011;6763;48.524;9.044;2023-02-28T06:55:57;1.57;;;1.47;;
13386;SDS011;6763;48.524;9.044;2023-02-28T06:58:22;2.20;;;1.60;;
13386;SDS011;6763;48.524;9.044;2023-02-28T07:00:50;1.67;;;1.27;;
13386;SDS011;6763;48.524;9.044;2023-02-28T07:03:17;1.40;;;1.30;;
13386;SDS011;6763;48.524;9.044;2023-02-28T07:05:43;1.80;;;1.40;;
13386;SDS011;6763;48.524;9.044;2023-02-28T07:08:09;1.93;;;1.77;;
13386;SDS011;6763;48.524;9.044;2023-02-28T07:10:36;1.33;;;1.23;;
13386;SDS011;6763;48.524;9.044;2023-02-28T07:13:02;1.53;;;1.43;;
13386;SDS011;6763;48.524;9.044;2023-02-28T07:15:28;1.30;;;1.20;;
13386;SDS011;6763;48.524;9.044;2023-02-28T07:17:53;1.80;;;1.43;;
13386;SDS011;6763;48.524;9.044;2023-02-28T07:20:19;0.98;;;0.98;;
13386;SDS011;6763;48.524;9.044;2023-02-28T07:22:44;1.75;;;1.65;;
13386;SDS011;6763;48.524;9.044;2023-02-28T07:25:09;1.90;;;1.00;;
13386;SDS011;6763;48.524;9.044;2023-02-28T07:27:35;1.42;;;1.33;;
13386;SDS011;6763;48.524;9.044;2023-02-28T07:30:00;1.35;;;1.25;;
13386;SDS011;6763;48.524;9.044;2023-02-28T07:32:27;3.67;;;2.20;;
13386;SDS011;6763;48.524;9.044;2023-02-28T07:34:52;2.10;;;1.67;;
13386;SDS011;6763;48.524;9.044;2023-02-28T07:37:18;1.70;;;1.60;;
13386;SDS011;6763;48.524;9.044;2023-02-28T07:39:43;2.23;;;1.40;;
13386;SDS011;6763;48.524;9.044;2023-02-28T07:42:08;3.42;;;1.83;;
13386;SDS011;6763;48.524;9.044;2023-02-28T07:44:36;2.30;;;1.88;;
13386;SDS011;6763;48.524;9.044;2023-02-28T07:47:05;1.47;;;1.37;;
13386;SDS011;6763;48.524;9.044;2023-02-28T07:49:31;2.43;;;2.23;;
13386;SDS011;6763;48.524;9.044;2023-02-28T07:51:57;2.60;;;1.90;;
13386;SDS011;6763;48.524;9.044;2023-02-28T07:54:22;2.38;;;1.98;;
13386;SDS011;6763;48.524;9.044;2023-02-28T07:56:47;2.22;;;1.52;;
13386;SDS011;6763;48.524;9.044;2023-02-28T07:59:13;1.88;;;1.55;;
13386;SDS011;6763;48.524;9.044;2023-02-28T08:01:38;2.72;;;2.08;;
13386;SDS011;6763;48.524;9.044;2023-02-28T08:04:03;2.00;;;1.77;;
13386;SDS011;6763;48.524;9.044;2023-02-28T08:06:29;2.03;;;1.35;;
13386;SDS011;6763;48.524;9.044;2023-02-28T08:08:54;2.00;;;1.75;;
13386;SDS011;6763;48.524;9.044;2023-02-28T08:11:21;2.85;;;1.48;;
13386;SDS011;6763;48.524;9.044;2023-02-28T08:13:46;1.70;;;1.60;;
13386;SDS011;6763;48.524;9.044;2023-02-28T08:16:12;1.85;;;1.52;;
13386;SDS011;6763;48.524;9.044;2023-02-28T08:18:46;1.98;;;1.60;;
13386;SDS011;6763;48.524;9.044;2023-02-28T08:21:12;1.73;;;1.63;;
13386;SDS011;6763;48.524;9.044;2023-02-28T08:23:37;2.00;;;1.80;;
13386;SDS011;6763;48.524;9.044;2023-02-28T08:26:03;4.28;;;2.72;;
13386;SDS011;6763;48.524;9.044;2023-02-28T08:28:29;2.47;;;1.65;;
13386;SDS011;6763;48.524;9.044;2023-02-28T08:30:54;1.60;;;1.50;;
13386;SDS011;6763;48.524;9.044;2023-02-28T08:33:20;1.98;;;1.73;;
13386;SDS011;6763;48.524;9.044;2023-02-28T08:35:46;3.00;;;2.03;;
13386;SDS011;6763;48.524;9.044;2023-02-28T08:38:11;1.25;;;1.15;;
13386;SDS011;6763;48.524;9.044;2023-02-28T08:40:36;2.00;;;1.80;;
13386;SDS011;6763;48.524;9.044;2023-02-28T08:43:02;2.67;;;1.83;;
13386;SDS011;6763;48.524;9.044;2023-02-28T08:45:27;2.57;;;1.90;;
13386;SDS011;6763;48.524;9.044;2023-02-28T08:47:53;1.73;;;1.40;;
13386;SDS011;6763;48.524;9.044;2023-02-28T08:50:19;1.83;;;1.60;;
13386;SDS011;6763;48.524;9.044;2023-02-28T08:52:45;2.50;;;1.80;;
13386;SDS011;6763;48.524;9.044;2023-02-28T08:55:10;2.95;;;2.03;;
13386;SDS011;6763;48.524;9.044;2023-02-28T08:57:35;3.35;;;1.95;;
13386;SDS011;6763;48.524;9.044;2023-02-28T09:00:02;2.72;;;2.05;;
13386;SDS011;6763;48.524;9.044;2023-02-28T09:02:29;1.65;;;1.55;;
13386;SDS011;6763;48.524;9.044;2023-02-28T09:04:57;2.80;;;2.22;;
13386;SDS011;6763;48.524;9.044;2023-02-28T09:07:25;2.17;;;1.73;;
13386;SDS011;6763;48.524;9.044;2023-02-28T09:09:51;2.05;;;1.67;;
13386;SDS011;6763;48.524;9.044;2023-02-28T09:12:25;2.53;;;2.13;;
13386;SDS011;6763;48.524;9.044;2023-02-28T09:14:51;4.40;;;3.13;;
13386;SDS011;6763;48.524;9.044;2023-02-28T09:17:17;2.47;;;2.28;;
13386;SDS011;6763;48.524;9.044;2023-02-28T09:19:43;4.15;;;2.25;;
13386;SDS011;6763;48.524;9.044;2023-02-28T09:22:09;2.58;;;1.95;;
13386;SDS011;6763;48.524;9.044;2023-02-28T09:24:38;2.55;;;1.88;;
13386;SDS011;6763;48.524;9.044;2023-02-28T09:27:03;3.75;;;2.72;;
13386;SDS011;6763;48.524;9.044;2023-02-28T09:29:30;3.08;;;2.38;;
13386;SDS011;6763;48.524;9.044;2023-02-28T09:31:57;2.42;;;1.85;;
13386;SDS011;6763;48.524;9.044;2023-02-28T09:34:23;6.57;;;2.70;;
13386;SDS011;6763;48.524;9.044;2023-02-28T09:36:49;4.00;;;2.45;;
13386;SDS011;6763;48.524;9.044;2023-02-28T09:39:19;3.03;;;2.33;;
13386;SDS011;6763;48.524;9.044;2023-02-28T09:41:47;6.25;;;2.75;;
13386;SDS011;6763;48.524;9.044;2023-02-28T09:49:52;2.92;;;2.25;;
13386;SDS011;6763;48.524;9.044;2023-02-28T09:52:18;3.75;;;2.83;;
13386;SDS011;6763;48.524;9.044;2023-02-28T09:54:46;2.60;;;2.22;;
13386;SDS011;6763;48.524;9.044;2023-02-28T10:00:38;4.93;;;2.28;;
13386;SDS011;6763;48.524;9.044;2023-02-28T10:05:50;2.70;;;2.05;;
13386;SDS011;6763;48.524;9.044;2023-02-28T10:08:20;5.60;;;2.53;;
13386;SDS011;6763;48.524;9.044;2023-02-28T10:10:57;3.55;;;2.25;;
13386;SDS011;6763;48.524;9.044;2023-02-28T10:13:36;2.40;;;2.10;;
13386;SDS011;6763;48.524;9.044;2023-02-28T10:21:39;4.22;;;2.65;;
13386;SDS011;6763;48.524;9.044;2023-02-28T10:26:48;2.20;;;2.00;;
13386;SDS011;6763;48.524;9.044;2023-02-28T10:29:16;3.50;;;2.33;;
13386;SDS011;6763;48.524;9.044;2023-02-28T10:31:41;2.33;;;1.95;;
13386;SDS011;6763;48.524;9.044;2023-02-28T10:34:07;2.35;;;2.13;;
13386;SDS011;6763;48.524;9.044;2023-02-28T10:36:36;2.95;;;2.22;;
13386;SDS011;6763;48.524;9.044;2023-02-28T10:39:03;4.22;;;2.55;;
13386;SDS011;6763;48.524;9.044;2023-02-28T10:42:04;2.92;;;2.33;;
13386;SDS011;6763;48.524;9.044;2023-02-28T10:44:43;2.50;;;2.20;;
13386;SDS011;6763;48.524;9.044;2023-02-28T10:47:13;2.55;;;2.30;;
13386;SDS011;6763;48.524;9.044;2023-02-28T10:49:45;3.45;;;2.17;;
13386;SDS011;6763;48.524;9.044;2023-02-28T10:52:12;3.53;;;2.55;;
13386;SDS011;6763;48.524;9.044;2023-02-28T10:54:38;2.72;;;1.98;;
13386;SDS011;6763;48.524;9.044;2023-02-28T10:57:20;3.97;;;2.50;;
13386;SDS011;6763;48.524;9.044;2023-02-28T11:00:05;4.63;;;2.47;;
13386;SDS011;6763;48.524;9.044;2023-02-28T11:02:38;3.38;;;2.20;;
13386;SDS011;6763;48.524;9.044;2023-02-28T11:08:19;3.15;;;2.22;;
13386;SDS011;6763;48.524;9.044;2023-02-28T11:10:47;3.75;;;2.90;;
13386;SDS011;6763;48.524;9.044;2023-02-28T11:13:21;3.15;;;2.42;;
13386;SDS011;6763;48.524;9.044;2023-02-28T11:15:53;2.90;;;2.08;;
13386;SDS011;6763;48.524;9.044;2023-02-28T11:21:01;2.67;;;2.10;;
13386;SDS011;6763;48.524;9.044;2023-02-28T11:23:29;2.38;;;2.17;;
13386;SDS011;6763;48.524;9.044;2023-02-28T11:25:59;4.57;;;2.83;;
13386;SDS011;6763;48.524;9.044;2023-02-28T11:28:30;2.67;;;2.22;;
13386;SDS011;6763;48.524;9.044;2023-02-28T11:36:19;3.92;;;2.78;;
13386;SDS011;6763;48.524;9.044;2023-02-28T11:38:49;4.35;;;1.90;;
13386;SDS011;6763;48.524;9.044;2023-02-28T11:54:28;3.10;;;2.60;;
13386;SDS011;6763;48.524;9.044;2023-02-28T11:57:37;3.08;;;2.30;;
13386;SDS011;6763;48.524;9.044;2023-02-28T12:10:54;4.43;;;2.63;;
13386;SDS011;6763;48.524;9.044;2023-02-28T12:16:27;2.90;;;2.50;;
13386;SDS011;6763;48.524;9.044;2023-02-28T12:19:10;3.05;;;2.60;;
13386;SDS011;6763;48.524;9.044;2023-02-28T12:21:56;2.22;;;1.98;;
13386;SDS011;6763;48.524;9.044;2023-02-28T12:27:24;2.60;;;2.40;;
13386;SDS011;6763;48.524;9.044;2023-02-28T12:29:57;3.78;;;2.83;;
13386;SDS011;6763;48.524;9.044;2023-02-28T12:32:37;4.43;;;2.97;;
13386;SDS011;6763;48.524;9.044;2023-02-28T12:37:44;3.40;;;2.42;;
13386;SDS011;6763;48.524;9.044;2023-02-28T12:40:19;6.18;;;2.70;;
13386;SDS011;6763;48.524;9.044;2023-02-28T12:42:51;2.90;;;2.25;;
13386;SDS011;6763;48.524;9.044;2023-02-28T12:48:10;3.05;;;2.75;;
13386;SDS011;6763;48.524;9.044;2023-02-28T12:50:40;4.38;;;2.15;;
13386;SDS011;6763;48.524;9.044;2023-02-28T12:53:08;5.82;;;2.55;;
13386;SDS011;6763;48.524;9.044;2023-02-28T12:55:48;3.92;;;2.30;;
13386;SDS011;6763;48.524;9.044;2023-02-28T12:58:28;2.97;;;2.47;;
13386;SDS011;6763;48.524;9.044;2023-02-28T13:03:42;4.43;;;3.30;;
13386;SDS011;6763;48.524;9.044;2023-02-28T13:06:22;3.92;;;2.83;;
13386;SDS011;6763;48.524;9.044;2023-02-28T13:09:10;3.53;;;2.50;;
13386;SDS011;6763;48.524;9.044;2023-02-28T13:11:50;4.07;;;2.90;;
13386;SDS011;6763;48.524;9.044;2023-02-28T13:14:28;3.67;;;2.97;;
13386;SDS011;6763;48.524;9.044;2023-02-28T13:19:32;2.38;;;2.08;;
13386;SDS011;6763;48.524;9.044;2023-02-28T13:21:59;3.58;;;2.67;;
13386;SDS011;6763;48.524;9.044;2023-02-28T13:24:37;3.10;;;2.70;;
13386;SDS011;6763;48.524;9.044;2023-02-28T13:29:35;3.60;;;2.50;;
13386;SDS011;6763;48.524;9.044;2023-02-28T13:34:36;4.15;;;3.17;;
13386;SDS011;6763;48.524;9.044;2023-02-28T13:47:41;3.13;;;2.25;;
13386;SDS011;6763;48.524;9.044;2023-02-28T14:06:39;3.03;;;2.47;;
13386;SDS011;6763;48.524;9.044;2023-02-28T14:11:48;4.75;;;3.30;;
13386;SDS011;6763;48.524;9.044;2023-02-28T14:17:01;3.97;;;2.60;;
13386;SDS011;6763;48.524;9.044;2023-02-28T14:19:30;4.57;;;2.72;;
13386;SDS011;6763;48.524;9.044;2023-02-28T14:24:51;6.68;;;3.00;;
13386;SDS011;6763;48.524;9.044;2023-02-28T14:27:29;2.22;;;1.63;;
13386;SDS011;6763;48.524;9.044;2023-02-28T14:33:05;4.65;;;3.05;;
13386;SDS011;6763;48.524;9.044;2023-02-28T14:39:04;2.72;;;2.50;;
13386;SDS011;6763;48.524;9.044;2023-02-28T14:43:56;1.92;;;1.83;;
13386;SDS011;6763;48.524;9.044;2023-02-28T14:46:27;3.38;;;2.60;;
13386;SDS011;6763;48.524;9.044;2023-02-28T14:48:57;3.47;;;2.47;;
13386;SDS011;6763;48.524;9.044;2023-02-28T14:51:23;5.00;;;3.20;;
13386;SDS011;6763;48.524;9.044;2023-02-28T14:53:50;2.88;;;2.35;;
13386;SDS011;6763;48.524;9.044;2023-02-28T14:56:26;3.67;;;2.78;;
13386;SDS011;6763;48.524;9.044;2023-02-28T14:58:56;4.07;;;2.88;;
13386;SDS011;6763;48.524;9.044;2023-02-28T15:01:22;2.45;;;2.25;;
13386;SDS011;6763;48.524;9.044;2023-02-28T15:03:56;3.17;;;2.67;;
13386;SDS011;6763;48.524;9.044;2023-02-28T15:06:27;5.50;;;3.00;;
13386;SDS011;6763;48.524;9.044;2023-02-28T15:11:40;4.72;;;2.70;;
13386;SDS011;6763;48.524;9.044;2023-02-28T15:14:06;3.80;;;2.55;;
13386;SDS011;6763;48.524;9.044;2023-02-28T15:16:39;4.47;;;2.83;;
13386;SDS011;6763;48.524;9.044;2023-02-28T15:19:13;3.80;;;2.80;;
13386;SDS011;6763;48.524;9.044;2023-02-28T15:21:46;3.42;;;2.83;;
13386;SDS011;6763;48.524;9.044;2023-02-28T15:27:12;4.15;;;2.80;;
13386;SDS011;6763;48.524;9.044;2023-02-28T15:29:42;3.28;;;2.47;;
13386;SDS011;6763;48.524;9.044;2023-02-28T15:32:24;6.93;;;2.42;;
13386;SDS011;6763;48.524;9.044;2023-02-28T15:34:57;4.55;;;2.67;;
13386;SDS011;6763;48.524;9.044;2023-02-28T15:39:56;3.38;;;2.72;;
13386;SDS011;6763;48.524;9.044;2023-02-28T15:42:27;4.30;;;2.53;;
13386;SDS011;6763;48.524;9.044;2023-02-28T15:44:54;3.72;;;2.78;;
13386;SDS011;6763;48.524;9.044;2023-02-28T15:47:24;4.80;;;2.47;;
13386;SDS011;6763;48.524;9.044;2023-02-28T15:49:52;2.88;;;2.58;;
13386;SDS011;6763;48.524;9.044;2023-02-28T15:52:22;2.63;;;2.15;;
13386;SDS011;6763;48.524;9.044;2023-02-28T15:54:53;2.85;;;2.13;;
13386;SDS011;6763;48.524;9.044;2023-02-28T15:57:20;2.58;;;1.88;;
13386;SDS011;6763;48.524;9.044;2023-02-28T15:59:54;2.60;;;2.40;;
13386;SDS011;6763;48.524;9.044;2023-02-28T16:02:31;4.72;;;2.50;;
13386;SDS011;6763;48.524;9.044;2023-02-28T16:07:37;2.63;;;2.35;;
13386;SDS011;6763;48.524;9.044;2023-02-28T16:10:08;4.05;;;2.65;;
13386;SDS011;6763;48.524;9.044;2023-02-28T16:12:35;3.20;;;2.50;;
13386;SDS011;6763;48.524;9.044;2023-02-28T16:15:06;3.72;;;2.72;;
13386;SDS011;6763;48.524;9.044;2023-02-28T16:17:50;3.40;;;2.53;;
13386;SDS011;6763;48.524;9.044;2023-02-28T16:20:21;5.30;;;2.63;;
13386;SDS011;6763;48.524;9.044;2023-02-28T16:22:49;3.60;;;2.75;;
13386;SDS011;6763;48.524;9.044;2023-02-28T16:25:15;3.47;;;2.72;;
13386;SDS011;6763;48.524;9.044;2023-02-28T16:27:43;2.53;;;2.10;;
13386;SDS011;6763;48.524;9.044;2023-02-28T16:30:29;1.88;;;1.40;;
13386;SDS011;6763;48.524;9.044;2023-02-28T16:32:56;4.13;;;2.90;;
13386;SDS011;6763;48.524;9.044;2023-02-28T16:35:22;4.45;;;2.65;;
13386;SDS011;6763;48.524;9.044;2023-02-28T16:37:50;5.30;;;2.83;;
13386;SDS011;6763;48.524;9.044;2023-02-28T16:40:17;3.55;;;2.60;;
13386;SDS011;6763;48.524;9.044;2023-02-28T16:42:45;4.35;;;2.45;;
13386;SDS011;6763;48.524;9.044;2023-02-28T16:45:17;2.83;;;2.28;;
13386;SDS011;6763;48.524;9.044;2023-02-28T16:47:46;3.60;;;2.65;;
13386;SDS011;6763;48.524;9.044;2023-02-28T16:50:16;3.30;;;2.17;;
13386;SDS011;6763;48.524;9.044;2023-02-28T16:52:45;5.53;;;2.72;;
13386;SDS011;6763;48.524;9.044;2023-02-28T16:55:11;4.20;;;2.50;;
13386;SDS011;6763;48.524;9.044;2023-02-28T16:57:37;5.32;;;2.40;;
13386;SDS011;6763;48.524;9.044;2023-02-28T17:00:04;8.23;;;2.85;;
13386;SDS011;6763;48.524;9.044;2023-02-28T17:02:32;8.85;;;2.88;;
13386;SDS011;6763;48.524;9.044;2023-02-28T17:04:58;3.90;;;2.47;;
13386;SDS011;6763;48.524;9.044;2023-02-28T17:07:24;4.70;;;2.38;;
13386;SDS011;6763;48.524;9.044;2023-02-28T17:09:49;4.63;;;2.45;;
13386;SDS011;6763;48.524;9.044;2023-02-28T17:12:15;3.55;;;2.40;;
13386;SDS011;6763;48.524;9.044;2023-02-28T17:14:41;5.35;;;2.92;;
13386;SDS011;6763;48.524;9.044;2023-02-28T17:17:06;4.43;;;2.83;;
13386;SDS011;6763;48.524;9.044;2023-02-28T17:19:34;3.28;;;2.30;;
13386;SDS011;6763;48.524;9.044;2023-02-28T17:22:01;8.48;;;2.40;;
13386;SDS011;6763;48.524;9.044;2023-02-28T17:24:28;3.55;;;2.42;;
13386;SDS011;6763;48.524;9.044;2023-02-28T17:26:53;4.38;;;2.15;;
13386;SDS011;6763;48.524;9.044;2023-02-28T17:29:20;2.75;;;2.38;;
13386;SDS011;6763;48.524;9.044;2023-02-28T17:31:46;5.30;;;2.40;;
13386;SDS011;6763;48.524;9.044;2023-02-28T17:34:12;7.03;;;2.40;;
13386;SDS011;6763;48.524;9.044;2023-02-28T17:36:43;4.53;;;3.15;;
13386;SDS011;6763;48.524;9.044;2023-02-28T17:39:10;2.92;;;2.15;;
13386;SDS011;6763;48.524;9.044;2023-02-28T17:41:39;4.55;;;2.47;;
13386;SDS011;6763;48.524;9.044;2023-02-28T17:44:06;3.30;;;2.10;;
13386;SDS011;6763;48.524;9.044;2023-02-28T17:46:32;2.72;;;2.47;;
13386;SDS011;6763;48.524;9.044;2023-02-28T17:48:58;3.60;;;2.42;;
13386;SDS011;6763;48.524;9.044;2023-02-28T17:51:23;3.83;;;2.50;;
13386;SDS011;6763;48.524;9.044;2023-02-28T17:53:49;5.63;;;2.50;;
13386;SDS011;6763;48.524;9.044;2023-02-28T17:56:22;6.10;;;2.95;;
13386;SDS011;6763;48.524;9.044;2023-02-28T17:58:49;9.48;;;2.95;;